Terminal Aerodrome Forecast
Issued by NWS

Home | Current Version | Previous Version | Text Only | Print | Product List | Glossary On
Versions: 1 2 3 4 5 6 7 8 9 10 11 12 13 14 15 16 17 18 19 20 21 22 23 24 25
000
FTUS46 KEKA 271700
TAFCEC
TAF
KCEC 271738Z 2718/2818 20004KT 5SM BR BKN004
     FM271900 20005KT P6SM SCT004
     FM272200 18004KT 5SM BR BKN004
     FM280300 VRB03KT 2SM BR OVC003
     FM280500 00000KT 1SM BR OVC003=

USA.gov is the U.S. government's official web portal to all federal, state and local government web resources and services.